Time;durP1;ratioP1;P1;durP2;ratioP2;P2;SDS_P1;SDS_P2;PMS_P1;PMS_P2;Temp;Humidity;BMP_temperature;BMP_pressure;BME280_temperature;BME280_humidity;BME280_pressure;Samples;Min_cycle;Max_cycle;Signal;HPM_P1;HPM_P2
2022/08/19 00:00:01;;;;;;;8.75;7.85;;;16.70;99.90;;;;;;5095898;28;20118;-70
2022/08/19 00:02:26;;;;;;;13.18;8.43;;;16.70;99.90;;;;;;5114668;28;20157;-70
2022/08/19 00:04:52;;;;;;;11.80;7.70;;;16.90;99.90;;;;;;5114638;28;20041;-70
2022/08/19 00:07:21;;;;;;;11.20;7.63;;;16.90;99.90;;;;;;5114545;28;20039;-70
2022/08/19 00:09:46;;;;;;;12.45;8.05;;;16.70;99.90;;;;;;5114068;28;20050;-70
2022/08/19 00:12:13;;;;;;;11.77;7.65;;;16.90;99.90;;;;;;5114461;28;20441;-70
2022/08/19 00:14:39;;;;;;;12.73;8.00;;;16.60;99.90;;;;;;5114491;28;20047;-70
2022/08/19 00:17:06;;;;;;;10.38;8.15;;;16.80;99.90;;;;;;5114469;28;20047;-70
2022/08/19 00:19:32;;;;;;;10.73;8.23;;;16.60;99.90;;;;;;5114031;28;20289;-70
2022/08/19 00:21:58;;;;;;;11.57;8.82;;;16.90;99.90;;;;;;5114252;28;20123;-70
2022/08/19 00:24:25;;;;;;;9.13;8.00;;;16.60;99.90;;;;;;5114138;28;20039;-70
2022/08/19 00:26:51;;;;;;;12.85;8.55;;;16.60;99.90;;;;;;5114199;28;20042;-70
2022/08/19 00:29:20;;;;;;;11.98;8.70;;;16.90;99.90;;;;;;5113864;28;20119;-70
2022/08/19 00:31:47;;;;;;;11.77;8.57;;;16.70;99.90;;;;;;5114004;28;20043;-70
2022/08/19 00:34:14;;;;;;;13.07;9.25;;;16.60;99.90;;;;;;5078751;28;20050;-70
2022/08/19 00:36:43;;;;;;;10.68;8.45;;;16.70;99.90;;;;;;5113954;28;20039;-70
2022/08/19 00:39:09;;;;;;;12.73;9.25;;;16.50;99.90;;;;;;5113540;28;20096;-70
2022/08/19 00:41:36;;;;;;;14.13;9.27;;;16.60;99.90;;;;;;5095363;28;20039;-70
2022/08/19 00:44:08;;;;;;;10.95;8.50;;;16.50;99.90;;;;;;5113921;28;20051;-70
2022/08/19 00:46:36;;;;;;;13.57;9.27;;;16.70;99.90;;;;;;5113560;28;20496;-70
2022/08/19 00:49:09;;;;;;;13.93;8.98;;;16.40;99.90;;;;;;5094980;28;20061;-70
2022/08/19 00:51:36;;;;;;;10.40;7.82;;;16.50;99.90;;;;;;5112841;28;20075;-70
2022/08/19 00:54:02;;;;;;;11.85;8.43;;;16.70;99.90;;;;;;5113815;28;20036;-70
2022/08/19 00:56:30;;;;;;;12.07;8.77;;;16.40;99.90;;;;;;5113456;28;20489;-70
2022/08/19 00:58:58;;;;;;;11.13;9.00;;;16.70;99.90;;;;;;5113506;28;20032;-70
2022/08/19 01:01:23;;;;;;;11.50;9.32;;;16.70;99.90;;;;;;5113187;28;20040;-70
2022/08/19 01:03:49;;;;;;;13.50;8.40;;;16.70;99.90;;;;;;5113285;28;20097;-70
2022/08/19 01:06:15;;;;;;;13.93;8.60;;;16.50;99.90;;;;;;5113514;28;20118;-70
2022/08/19 01:08:41;;;;;;;15.32;8.35;;;16.60;99.90;;;;;;5113402;28;20497;-70
2022/08/19 01:11:07;;;;;;;10.27;8.57;;;16.50;99.90;;;;;;5112741;28;20035;-70
2022/08/19 01:13:33;;;;;;;9.65;8.63;;;16.50;99.90;;;;;;5112774;28;20591;-70
2022/08/19 01:16:07;;;;;;;12.20;8.45;;;16.50;99.90;;;;;;5095176;28;20036;-70
2022/08/19 01:18:37;;;;;;;11.07;8.93;;;16.40;99.90;;;;;;5113020;28;20115;-70
2022/08/19 01:21:10;;;;;;;13.27;8.45;;;16.20;99.90;;;;;;5112942;28;20053;-70
2022/08/19 01:23:42;;;;;;;10.75;8.50;;;16.30;99.90;;;;;;5113252;28;20074;-70
2022/08/19 01:26:20;;;;;;;12.50;8.52;;;16.30;99.90;;;;;;5113001;28;20042;-70
2022/08/19 01:28:48;;;;;;;13.68;9.23;;;16.20;99.90;;;;;;5112836;28;20039;-70
2022/08/19 01:31:18;;;;;;;12.77;8.82;;;16.30;99.90;;;;;;5112538;28;20047;-70
2022/08/19 01:33:44;;;;;;;15.15;8.52;;;16.40;99.90;;;;;;5112922;28;20047;-70
2022/08/19 01:36:21;;;;;;;15.18;9.32;;;16.40;99.90;;;;;;5112888;28;20118;-70
2022/08/19 01:38:48;;;;;;;12.43;8.20;;;16.50;99.90;;;;;;5112600;28;20032;-70
2022/08/19 01:41:13;;;;;;;7.35;6.35;;;16.30;99.90;;;;;;5112331;28;20050;-70
2022/08/19 01:43:39;;;;;;;8.65;6.97;;;16.30;99.90;;;;;;5112625;28;20040;-70
2022/08/19 01:46:05;;;;;;;6.45;5.60;;;16.30;99.90;;;;;;5112512;28;20051;-70
2022/08/19 01:48:37;;;;;;;7.15;6.03;;;16.30;99.90;;;;;;5094238;28;20086;-70
2022/08/19 01:51:03;;;;;;;6.85;5.50;;;15.90;99.90;;;;;;5112449;28;20055;-70
2022/08/19 01:53:29;;;;;;;6.35;4.40;;;16.00;99.90;;;;;;5112154;28;20036;-70
2022/08/19 01:55:55;;;;;;;4.75;3.70;;;16.10;99.90;;;;;;5112107;28;20038;-70
2022/08/19 01:58:24;;;;;;;5.72;4.53;;;16.00;99.90;;;;;;5112174;28;20039;-70
2022/08/19 02:00:50;;;;;;;7.47;5.68;;;15.90;99.90;;;;;;5094097;28;20035;-70
2022/08/19 02:03:16;;;;;;;6.50;5.03;;;15.90;99.90;;;;;;5112433;28;20039;-70
2022/08/19 02:05:43;;;;;;;6.28;4.55;;;16.00;99.90;;;;;;5112436;28;20062;-70
2022/08/19 02:08:10;;;;;;;5.18;4.20;;;16.00;99.90;;;;;;5093980;28;20082;-70
2022/08/19 02:10:40;;;;;;;5.20;3.85;;;15.80;99.90;;;;;;5111896;28;20047;-70
2022/08/19 02:13:06;;;;;;;5.45;3.58;;;15.60;99.90;;;;;;5112349;28;20075;-70
2022/08/19 02:15:32;;;;;;;4.07;2.90;;;15.60;99.90;;;;;;5112379;28;20038;-70
2022/08/19 02:17:58;;;;;;;3.25;2.50;;;15.50;99.90;;;;;;5112080;28;20032;-70
2022/08/19 02:20:23;;;;;;;3.10;2.20;;;15.50;99.90;;;;;;5093640;28;20046;-70
2022/08/19 02:22:50;;;;;;;2.42;1.85;;;15.50;99.90;;;;;;5111949;28;20040;-70
2022/08/19 02:25:16;;;;;;;4.88;2.30;;;15.50;99.90;;;;;;5093791;28;20507;-70
2022/08/19 02:27:42;;;;;;;2.88;2.40;;;15.40;99.90;;;;;;5112087;28;20040;-70
2022/08/19 02:30:12;;;;;;;3.15;2.40;;;15.40;99.90;;;;;;5111802;28;20135;-70
2022/08/19 02:32:38;;;;;;;4.60;2.92;;;15.40;99.90;;;;;;5111903;28;20493;-70
2022/08/19 02:35:05;;;;;;;5.45;4.45;;;15.40;99.90;;;;;;5112081;28;20039;-70
2022/08/19 02:40:14;;;;;;;6.35;3.88;;;15.30;99.90;;;;;;5093350;28;20036;-70
2022/08/19 02:42:40;;;;;;;5.38;3.63;;;15.40;99.90;;;;;;5111874;28;20032;-70
2022/08/19 02:45:07;;;;;;;5.07;4.03;;;15.10;99.90;;;;;;5111848;28;20065;-70
2022/08/19 02:47:33;;;;;;;4.32;3.03;;;15.30;99.90;;;;;;5111835;28;20085;-70
2022/08/19 02:50:00;;;;;;;7.68;3.78;;;15.10;99.90;;;;;;5093577;28;20040;-70
2022/08/19 02:52:27;;;;;;;5.72;3.03;;;15.10;99.90;;;;;;5093485;28;20047;-70
2022/08/19 02:54:52;;;;;;;4.78;3.30;;;15.10;99.90;;;;;;5112005;28;20193;-70
2022/08/19 02:57:18;;;;;;;5.75;3.60;;;15.20;99.90;;;;;;5111963;28;20576;-70
2022/08/19 02:59:43;;;;;;;7.20;4.20;;;15.00;99.90;;;;;;5111271;28;20046;-69
2022/08/19 03:02:09;;;;;;;5.93;4.57;;;15.30;99.90;;;;;;5111555;28;20035;-70
2022/08/19 03:04:34;;;;;;;5.65;5.03;;;15.00;99.90;;;;;;5111524;28;20144;-70
2022/08/19 03:07:00;;;;;;;6.22;4.93;;;15.20;99.90;;;;;;5111660;28;20127;-70
2022/08/19 03:09:26;;;;;;;7.65;4.95;;;15.00;99.90;;;;;;5111589;28;20071;-70
2022/08/19 03:11:51;;;;;;;6.60;5.07;;;15.00;99.90;;;;;;5111708;28;20043;-69
2022/08/19 03:14:17;;;;;;;6.47;4.93;;;15.20;99.90;;;;;;5093364;28;20075;-70
2022/08/19 03:16:49;;;;;;;9.15;6.70;;;15.00;99.90;;;;;;5093641;28;20044;-70
2022/08/19 03:19:17;;;;;;;7.13;5.72;;;15.00;99.90;;;;;;5093235;28;20104;-70
2022/08/19 03:21:47;;;;;;;6.60;5.68;;;15.20;99.90;;;;;;5111704;28;20047;-70
2022/08/19 03:24:13;;;;;;;9.05;6.68;;;15.20;99.90;;;;;;5111691;28;20036;-70
2022/08/19 03:26:46;;;;;;;8.38;6.05;;;15.10;99.90;;;;;;5107359;28;20036;-70
2022/08/19 03:29:12;;;;;;;8.10;6.63;;;15.10;99.90;;;;;;5125972;28;20027;-70
2022/08/19 03:31:39;;;;;;;10.63;6.40;;;15.20;99.90;;;;;;5126901;28;20076;-70
2022/08/19 03:34:05;;;;;;;9.48;6.90;;;15.00;99.90;;;;;;5131831;27;20039;-70
2022/08/19 03:36:31;;;;;;;9.38;7.07;;;15.20;99.90;;;;;;5135124;27;20118;-70
2022/08/19 03:38:59;;;;;;;11.68;6.53;;;15.30;99.90;;;;;;5148868;22;20485;-67
2022/08/19 03:41:31;;;;;;;7.97;6.75;;;15.20;99.90;;;;;;5114246;27;20080;-66
2022/08/19 03:43:57;;;;;;;10.43;8.13;;;15.10;99.90;;;;;;5115030;28;20081;-66
2022/08/19 03:46:26;;;;;;;9.48;7.65;;;15.40;99.90;;;;;;5113494;28;20527;-66
2022/08/19 03:48:54;;;;;;;9.25;7.25;;;15.10;99.90;;;;;;5112080;28;20043;-66
2022/08/19 03:51:32;;;;;;;9.55;6.97;;;15.30;99.90;;;;;;5114499;28;20039;-66
2022/08/19 03:54:00;;;;;;;11.43;7.95;;;15.10;99.90;;;;;;5114886;28;20042;-66
2022/08/19 03:56:27;;;;;;;8.63;6.85;;;15.10;99.90;;;;;;5114785;28;20035;-66
2022/08/19 03:58:54;;;;;;;8.95;7.05;;;15.30;99.90;;;;;;5113363;28;20047;-66
2022/08/19 04:01:22;;;;;;;9.30;7.20;;;15.10;99.90;;;;;;5114393;28;20039;-66
2022/08/19 04:03:49;;;;;;;9.68;6.35;;;15.20;99.90;;;;;;5113564;28;20065;-66
2022/08/19 04:06:17;;;;;;;9.48;6.35;;;15.20;99.90;;;;;;5113221;28;20046;-66
2022/08/19 04:08:45;;;;;;;7.25;5.93;;;15.30;99.90;;;;;;5114491;28;20036;-66
2022/08/19 04:11:13;;;;;;;7.30;5.88;;;15.20;99.90;;;;;;5114182;28;20119;-66
2022/08/19 04:13:39;;;;;;;6.15;5.03;;;15.10;99.90;;;;;;5114257;28;20056;-66
2022/08/19 04:16:05;;;;;;;5.60;4.45;;;15.00;99.90;;;;;;5114498;28;20040;-66
2022/08/19 04:18:34;;;;;;;7.63;5.00;;;14.90;99.90;;;;;;5112956;28;20116;-66
2022/08/19 04:21:00;;;;;;;6.28;5.00;;;15.00;99.90;;;;;;5113963;28;20042;-66
2022/08/19 04:23:27;;;;;;;5.93;4.63;;;15.10;99.90;;;;;;5114137;28;20126;-66
2022/08/19 04:25:54;;;;;;;7.00;5.00;;;14.90;99.90;;;;;;5114027;28;20517;-66
2022/08/19 04:28:20;;;;;;;6.32;4.88;;;14.90;99.90;;;;;;5114094;28;20031;-67
2022/08/19 04:30:51;;;;;;;5.32;4.72;;;15.10;99.90;;;;;;5113923;28;20051;-66
2022/08/19 04:33:20;;;;;;;6.00;5.30;;;15.00;99.90;;;;;;5114078;28;20093;-66
2022/08/19 04:35:48;;;;;;;6.00;5.40;;;15.10;99.90;;;;;;5113837;28;20040;-66
2022/08/19 04:38:15;;;;;;;7.22;6.32;;;14.90;99.90;;;;;;5113670;28;20539;-66
2022/08/19 04:43:30;;;;;;;5.03;4.53;;;14.90;99.90;;;;;;5113972;28;20043;-66
2022/08/19 04:45:56;;;;;;;5.70;5.13;;;15.00;99.90;;;;;;5112234;28;20032;-66
2022/08/19 04:48:28;;;;;;;4.65;4.15;;;14.80;99.90;;;;;;5112967;28;20516;-66
2022/08/19 04:50:58;;;;;;;5.72;5.22;;;15.00;99.90;;;;;;5113225;28;20078;-66
2022/08/19 04:53:29;;;;;;;5.18;4.53;;;15.00;99.90;;;;;;5113783;28;20047;-66
2022/08/19 04:55:56;;;;;;;5.82;5.22;;;14.90;99.90;;;;;;5113751;28;20084;-66
2022/08/19 04:58:24;;;;;;;5.65;4.45;;;14.70;99.90;;;;;;5112173;28;20071;-66
2022/08/19 05:00:49;;;;;;;5.25;4.75;;;14.90;99.90;;;;;;5113228;28;20044;-66
2022/08/19 05:03:16;;;;;;;5.15;4.65;;;15.00;99.90;;;;;;5095099;28;20099;-66
2022/08/19 05:05:44;;;;;;;5.60;5.10;;;14.80;99.90;;;;;;5113293;28;20047;-66
2022/08/19 05:08:11;;;;;;;6.57;5.72;;;14.90;99.90;;;;;;5113417;28;20036;-66
2022/08/19 05:10:38;;;;;;;6.65;4.97;;;14.90;99.90;;;;;;5111952;28;20412;-66
2022/08/19 05:13:03;;;;;;;7.22;6.07;;;14.70;99.90;;;;;;5111998;28;20409;-66
2022/08/19 05:15:29;;;;;;;10.80;6.78;;;14.80;99.90;;;;;;5113254;28;20035;-66
2022/08/19 05:23:23;;;;;;;12.43;8.25;;;15.40;99.90;;;;;;5113189;28;20043;-67
2022/08/19 05:25:50;;;;;;;13.30;9.45;;;15.40;99.90;;;;;;5111682;28;20039;-67
2022/08/19 05:28:16;;;;;;;16.15;10.90;;;15.70;99.90;;;;;;5112931;28;20114;-67
2022/08/19 05:30:43;;;;;;;22.10;12.32;;;15.80;99.90;;;;;;5112506;28;20135;-66
2022/08/19 05:33:09;;;;;;;20.02;11.82;;;16.10;99.90;;;;;;5111766;28;20035;-66
2022/08/19 05:35:37;;;;;;;20.30;13.20;;;16.10;99.90;;;;;;5112979;28;20039;-67
2022/08/19 05:38:03;;;;;;;23.20;14.73;;;16.40;99.90;;;;;;5112649;28;20085;-66
2022/08/19 05:40:29;;;;;;;20.27;12.55;;;17.10;99.90;;;;;;5112434;28;20035;-67
2022/08/19 05:42:54;;;;;;;18.88;11.52;;;16.90;99.90;;;;;;5112657;28;20051;-66
2022/08/19 05:45:21;;;;;;;17.95;12.18;;;17.50;99.90;;;;;;5111515;28;20492;-67
2022/08/19 05:47:47;;;;;;;18.02;11.98;;;17.90;99.90;;;;;;5112782;28;20074;-67
2022/08/19 05:50:13;;;;;;;17.75;13.23;;;18.20;99.90;;;;;;5110839;28;20101;-67
2022/08/19 05:52:39;;;;;;;14.65;11.15;;;18.10;99.90;;;;;;5111308;28;20043;-67
2022/08/19 05:55:05;;;;;;;17.38;12.68;;;18.50;99.90;;;;;;5112545;28;20485;-66
2022/08/19 05:57:31;;;;;;;16.08;11.82;;;18.80;99.90;;;;;;5112106;28;20067;-66
2022/08/19 05:59:59;;;;;;;16.75;11.68;;;19.10;99.90;;;;;;5111940;28;20117;-66
2022/08/19 06:02:27;;;;;;;17.10;11.77;;;19.30;99.90;;;;;;5112594;28;20032;-67
2022/08/19 06:04:52;;;;;;;14.25;10.68;;;19.40;99.90;;;;;;5112459;28;20114;-67
2022/08/19 06:07:19;;;;;;;16.30;10.70;;;19.80;99.90;;;;;;5111174;28;20180;-67
2022/08/19 06:09:44;;;;;;;17.25;10.30;;;19.70;99.90;;;;;;5110587;28;20048;-67
2022/08/19 06:12:10;;;;;;;17.33;12.30;;;20.00;99.90;;;;;;5111165;28;20088;-67
2022/08/19 06:14:36;;;;;;;16.13;12.05;;;20.20;99.90;;;;;;5110851;28;20043;-66
2022/08/19 06:17:02;;;;;;;15.90;10.85;;;20.50;99.90;;;;;;5112164;28;20031;-66
2022/08/19 06:19:30;;;;;;;13.40;10.27;;;20.80;99.90;;;;;;5111889;28;20031;-67
2022/08/19 06:21:58;;;;;;;12.45;9.27;;;21.10;99.90;;;;;;5112374;28;20145;-66
2022/08/19 06:24:25;;;;;;;10.27;9.05;;;21.20;99.90;;;;;;5112230;28;20054;-67
2022/08/19 06:26:53;;;;;;;12.30;8.05;;;21.40;99.90;;;;;;5110830;28;20051;-67
2022/08/19 06:29:21;;;;;;;12.88;8.70;;;21.50;99.90;;;;;;5111917;28;20070;-67
2022/08/19 06:31:49;;;;;;;10.23;8.50;;;21.70;99.90;;;;;;5112102;28;20085;-67
2022/08/19 06:34:16;;;;;;;10.57;7.57;;;21.80;99.90;;;;;;5110940;28;20123;-67
2022/08/19 06:36:45;;;;;;;13.98;8.35;;;22.00;99.90;;;;;;5112088;28;20042;-67
2022/08/19 06:39:16;;;;;;;10.88;8.82;;;22.30;99.90;;;;;;5110453;28;20035;-67
2022/08/19 06:41:44;;;;;;;11.32;8.65;;;22.40;99.90;;;;;;5112145;28;20039;-67
2022/08/19 06:44:11;;;;;;;9.60;7.70;;;22.40;99.90;;;;;;5110976;28;20440;-67
2022/08/19 06:46:38;;;;;;;10.38;8.73;;;22.60;99.90;;;;;;5112060;28;20078;-67
2022/08/19 06:49:04;;;;;;;11.15;8.35;;;22.90;99.90;;;;;;5110486;28;20485;-67
2022/08/19 06:51:32;;;;;;;10.18;8.10;;;23.00;99.90;;;;;;5111680;28;20028;-67
2022/08/19 06:53:58;;;;;;;9.50;8.45;;;23.10;99.90;;;;;;5111692;28;20516;-67
2022/08/19 06:56:33;;;;;;;11.88;9.35;;;23.40;99.90;;;;;;5111955;28;20039;-67
2022/08/19 06:59:03;;;;;;;11.02;8.48;;;23.60;99.90;;;;;;5110558;28;20106;-68
2022/08/19 07:01:29;;;;;;;10.77;8.20;;;23.50;99.90;;;;;;5111575;28;20035;-68
2022/08/19 07:03:56;;;;;;;12.30;8.82;;;23.40;99.90;;;;;;5111771;28;20036;-69
2022/08/19 07:06:21;;;;;;;10.43;8.70;;;23.40;99.90;;;;;;5093391;28;20043;-67
2022/08/19 07:08:48;;;;;;;11.63;8.05;;;23.40;99.90;;;;;;5111770;28;20374;-67
2022/08/19 07:11:17;;;;;;;9.75;8.70;;;23.30;99.90;;;;;;5114146;28;20043;-67
2022/08/19 07:13:45;;;;;;;13.70;9.80;;;23.40;99.90;;;;;;5115645;28;20040;-68
2022/08/19 07:16:19;;;;;;;11.38;8.93;;;23.30;99.90;;;;;;5115609;28;20096;-67
2022/08/19 07:18:46;;;;;;;14.43;9.00;;;23.40;99.90;;;;;;5114428;28;20049;-67
2022/08/19 07:21:16;;;;;;;13.57;8.77;;;23.50;99.90;;;;;;5115092;28;20036;-68
2022/08/19 07:23:42;;;;;;;15.75;10.13;;;23.40;99.90;;;;;;5115563;28;20092;-67
2022/08/19 07:26:11;;;;;;;17.50;8.35;;;23.70;99.90;;;;;;5114337;28;20409;-68
2022/08/19 07:28:38;;;;;;;17.60;9.68;;;23.60;99.90;;;;;;5115201;28;20092;-67
2022/08/19 07:31:09;;;;;;;21.50;10.25;;;23.70;99.90;;;;;;5113683;28;20047;-68
2022/08/19 07:33:36;;;;;;;15.00;8.48;;;23.80;99.90;;;;;;5115324;28;20371;-67
2022/08/19 07:36:05;;;;;;;22.92;10.25;;;24.00;99.90;;;;;;5115230;28;20050;-68
2022/08/19 07:38:31;;;;;;;14.82;8.88;;;24.10;99.90;;;;;;5115165;28;20118;-68
2022/08/19 07:40:56;;;;;;;15.88;8.57;;;24.10;99.90;;;;;;5114956;28;20032;-67
2022/08/19 07:43:25;;;;;;;14.60;8.45;;;24.30;99.90;;;;;;5114956;28;20081;-67
2022/08/19 07:45:56;;;;;;;12.73;8.82;;;24.50;99.90;;;;;;5114849;28;20085;-67
2022/08/19 07:48:25;;;;;;;12.73;8.55;;;24.70;99.90;;;;;;5115228;28;20031;-67
2022/08/19 07:50:57;;;;;;;11.07;7.93;;;24.80;99.90;;;;;;5113529;28;20044;-68
2022/08/19 07:53:24;;;;;;;12.13;8.98;;;25.10;99.90;;;;;;5114851;28;20050;-68
2022/08/19 07:55:50;;;;;;;13.65;8.50;;;25.10;99.60;;;;;;5114847;28;20032;-68
2022/08/19 07:58:19;;;;;;;10.85;8.90;;;25.00;98.90;;;;;;5108365;28;20095;-68
2022/08/19 08:00:47;;;;;;;9.50;8.50;;;24.90;98.70;;;;;;5101625;28;20032;-67
2022/08/19 08:03:15;;;;;;;9.63;8.63;;;25.00;98.40;;;;;;5104208;28;20141;-67
2022/08/19 08:11:12;;;;;;;10.98;8.50;;;25.40;97.50;;;;;;5092491;28;20459;-69
2022/08/19 08:13:38;;;;;;;10.98;8.20;;;25.60;97.20;;;;;;5092616;28;20098;-67
2022/08/19 08:16:03;;;;;;;10.23;7.32;;;25.80;96.80;;;;;;5092635;28;20516;-68
2022/08/19 08:18:29;;;;;;;10.23;7.97;;;26.00;97.30;;;;;;5093952;28;20031;-68
2022/08/19 08:20:56;;;;;;;10.30;7.78;;;26.20;96.90;;;;;;5092183;28;20079;-68
2022/08/19 08:23:24;;;;;;;10.40;8.15;;;26.30;96.10;;;;;;5093872;28;20098;-68
2022/08/19 08:25:51;;;;;;;10.73;7.45;;;26.30;95.50;;;;;;5092541;28;20044;-67
2022/08/19 08:28:17;;;;;;;10.48;8.20;;;26.50;95.80;;;;;;5092324;28;20465;-69
2022/08/19 08:30:45;;;;;;;10.13;7.22;;;26.50;95.60;;;;;;5093510;28;20051;-68
2022/08/19 08:33:11;;;;;;;9.95;7.70;;;26.60;95.30;;;;;;5092560;28;20042;-68
2022/08/19 08:35:36;;;;;;;12.10;7.25;;;26.70;94.50;;;;;;5092189;28;20460;-68
2022/08/19 08:38:04;;;;;;;9.70;7.20;;;26.80;93.80;;;;;;5092206;28;20115;-67
2022/08/19 08:40:41;;;;;;;10.80;9.23;;;26.90;93.30;;;;;;5092002;28;20089;-67
2022/08/19 08:43:27;;;;;;;9.15;8.20;;;26.90;93.10;;;;;;5093411;28;20544;-68
2022/08/19 08:46:00;;;;;;;8.35;7.22;;;27.10;92.20;;;;;;5093395;28;20074;-68
2022/08/19 08:48:53;;;;;;;8.27;6.90;;;27.10;92.70;;;;;;5075421;28;20390;-69
2022/08/19 08:51:26;;;;;;;10.55;8.13;;;27.50;91.90;;;;;;5093167;28;20080;-68
2022/08/19 08:53:53;;;;;;;7.60;6.55;;;27.40;91.10;;;;;;5092083;28;20089;-69
2022/08/19 08:56:20;;;;;;;8.05;7.15;;;27.60;91.30;;;;;;5093238;28;20032;-69
2022/08/19 08:59:08;;;;;;;7.47;6.18;;;27.80;91.20;;;;;;5091995;28;20086;-70
2022/08/19 09:01:34;;;;;;;9.55;6.53;;;28.00;88.30;;;;;;5091586;28;20043;-68
2022/08/19 09:04:02;;;;;;;6.07;5.45;;;28.00;89.10;;;;;;5093206;28;20040;-69
2022/08/19 09:06:54;;;;;;;6.05;5.45;;;28.00;88.20;;;;;;5102098;28;20040;-69
2022/08/19 09:09:34;;;;;;;5.47;4.97;;;28.40;88.60;;;;;;5103505;28;20551;-69
2022/08/19 09:12:38;;;;;;;7.53;5.47;;;28.20;88.00;;;;;;5094653;28;20556;-69
2022/08/19 09:15:08;;;;;;;6.95;5.43;;;28.00;85.50;;;;;;5093000;28;20036;-69
2022/08/19 09:17:34;;;;;;;7.57;6.57;;;28.00;86.40;;;;;;5092884;28;20081;-69
2022/08/19 09:20:07;;;;;;;5.93;5.03;;;27.70;85.60;;;;;;5092653;28;20487;-68
2022/08/19 09:22:36;;;;;;;5.85;4.63;;;27.70;86.50;;;;;;5092851;28;20044;-70
2022/08/19 09:25:04;;;;;;;7.32;6.28;;;27.80;85.80;;;;;;5092860;28;20052;-70
2022/08/19 09:27:31;;;;;;;7.78;6.50;;;27.70;86.00;;;;;;5091459;28;20040;-69
2022/08/19 09:29:57;;;;;;;7.93;5.55;;;27.60;85.90;;;;;;5092326;28;20089;-69
2022/08/19 09:32:23;;;;;;;5.93;5.32;;;27.60;85.80;;;;;;5091934;28;20039;-69
2022/08/19 09:34:49;;;;;;;10.30;6.93;;;27.70;85.60;;;;;;5091156;28;20043;-69
2022/08/19 09:37:14;;;;;;;11.70;6.95;;;27.50;84.90;;;;;;5092558;28;20028;-69
2022/08/19 09:39:41;;;;;;;9.55;6.40;;;27.30;85.00;;;;;;5105038;22;20108;-67
2022/08/19 09:42:11;;;;;;;6.72;5.20;;;27.40;85.40;;;;;;5091228;28;20173;-67
2022/08/19 09:44:38;;;;;;;5.70;4.25;;;27.40;84.10;;;;;;5092322;28;20221;-68
2022/08/19 09:47:04;;;;;;;5.57;4.43;;;27.40;84.10;;;;;;5092892;28;20056;-68
2022/08/19 09:49:30;;;;;;;5.05;4.60;;;27.50;83.70;;;;;;5091889;28;20524;-67
2022/08/19 09:51:56;;;;;;;5.38;4.88;;;27.50;83.30;;;;;;5092417;28;20032;-68
2022/08/19 09:54:23;;;;;;;5.95;4.63;;;27.50;84.00;;;;;;5092681;28;20047;-67
2022/08/19 09:56:49;;;;;;;6.00;4.70;;;27.50;83.60;;;;;;5092248;28;20036;-67
2022/08/19 09:59:14;;;;;;;6.10;4.90;;;27.50;82.80;;;;;;5091539;28;20038;-67
2022/08/19 10:01:40;;;;;;;5.47;4.97;;;27.40;85.40;;;;;;5092083;28;20032;-67
2022/08/19 10:04:09;;;;;;;6.50;4.93;;;27.30;82.60;;;;;;5092326;28;20051;-67
2022/08/19 10:06:37;;;;;;;7.65;4.40;;;27.30;81.30;;;;;;5084188;28;20029;-67
2022/08/19 10:09:06;;;;;;;6.32;4.53;;;27.30;80.10;;;;;;5064657;28;20393;-66
2022/08/19 10:11:32;;;;;;;5.45;4.85;;;27.20;81.30;;;;;;5081344;28;20059;-66
2022/08/19 10:13:59;;;;;;;8.15;5.60;;;27.10;80.60;;;;;;5080241;28;21351;-66
2022/08/19 10:16:25;;;;;;;6.00;4.50;;;27.00;79.20;;;;;;5081227;28;20040;-66
2022/08/19 10:18:51;;;;;;;6.57;5.53;;;26.80;81.40;;;;;;5080202;28;20029;-66
2022/08/19 10:21:22;;;;;;;7.20;5.35;;;26.80;80.90;;;;;;5072261;28;20033;-66
2022/08/19 10:23:50;;;;;;;7.57;5.30;;;26.70;80.90;;;;;;5070444;28;20055;-66
2022/08/19 10:26:22;;;;;;;7.07;6.38;;;26.60;82.00;;;;;;5071592;28;20510;-66
2022/08/19 10:28:49;;;;;;;7.40;6.40;;;26.60;81.50;;;;;;5071853;28;20048;-66
2022/08/19 10:31:19;;;;;;;8.70;5.43;;;26.50;81.40;;;;;;5074116;28;20154;-66
2022/08/19 10:33:46;;;;;;;8.02;6.03;;;26.60;82.50;;;;;;5082419;28;20064;-67
2022/08/19 10:36:17;;;;;;;6.93;5.57;;;26.60;83.90;;;;;;5074329;28;20044;-67
2022/08/19 10:38:45;;;;;;;7.13;6.43;;;26.50;82.90;;;;;;5073806;28;20040;-66
2022/08/19 10:41:17;;;;;;;6.80;6.13;;;26.50;83.40;;;;;;5081663;28;20032;-66
2022/08/19 10:43:44;;;;;;;7.75;6.95;;;26.50;83.40;;;;;;5074331;28;20486;-66
2022/08/19 10:46:13;;;;;;;6.85;5.95;;;26.50;83.80;;;;;;5075547;28;20559;-66
2022/08/19 10:48:39;;;;;;;8.65;6.45;;;26.60;83.80;;;;;;5075423;28;20106;-66
2022/08/19 10:53:50;;;;;;;6.80;6.10;;;26.70;83.80;;;;;;5074074;28;20143;-66
2022/08/19 10:59:03;;;;;;;9.23;8.23;;;26.70;85.20;;;;;;5075936;28;20051;-66
2022/08/19 11:01:30;;;;;;;13.13;8.07;;;26.60;84.20;;;;;;5074186;28;20062;-67
2022/08/19 11:03:57;;;;;;;9.07;7.28;;;26.60;85.40;;;;;;5075203;28;20056;-66
2022/08/19 11:06:24;;;;;;;8.55;7.53;;;26.50;84.40;;;;;;5075345;28;20044;-67
2022/08/19 11:08:51;;;;;;;8.25;7.45;;;26.60;83.90;;;;;;5075153;28;20040;-65
2022/08/19 11:11:16;;;;;;;8.15;6.93;;;26.60;85.90;;;;;;5074797;28;20055;-64
2022/08/19 11:13:43;;;;;;;8.50;7.25;;;26.60;85.80;;;;;;5076524;28;20032;-65
2022/08/19 11:16:19;;;;;;;11.85;7.80;;;26.70;85.40;;;;;;5088156;28;20413;-65
2022/08/19 11:18:48;;;;;;;10.25;8.48;;;26.90;85.00;;;;;;5086871;28;20032;-65
2022/08/19 11:21:18;;;;;;;11.95;7.95;;;26.80;85.60;;;;;;5095000;28;20060;-65
2022/08/19 11:23:45;;;;;;;10.60;7.43;;;26.70;83.30;;;;;;5095099;28;20040;-65
2022/08/19 11:26:12;;;;;;;10.20;7.30;;;26.70;84.50;;;;;;5095047;28;20048;-65
2022/08/19 11:28:38;;;;;;;9.10;7.05;;;26.80;83.10;;;;;;5094777;28;20493;-65
2022/08/19 11:31:09;;;;;;;9.95;7.93;;;26.80;83.20;;;;;;5094634;28;20119;-64
2022/08/19 11:33:34;;;;;;;9.60;8.18;;;26.70;82.40;;;;;;5094989;28;20217;-65
2022/08/19 11:36:00;;;;;;;12.75;8.50;;;26.60;82.50;;;;;;5094913;28;20063;-64
2022/08/19 11:38:26;;;;;;;9.40;8.48;;;26.60;82.10;;;;;;5094727;28;20039;-64
2022/08/19 11:40:57;;;;;;;14.20;9.02;;;26.70;82.50;;;;;;5094371;28;20119;-65
2022/08/19 11:43:24;;;;;;;11.40;8.73;;;26.50;81.50;;;;;;5094586;28;20051;-65
2022/08/19 11:45:49;;;;;;;10.90;8.70;;;26.50;82.70;;;;;;5094815;28;20044;-65
2022/08/19 11:48:15;;;;;;;13.35;10.07;;;26.40;83.70;;;;;;5093251;28;20089;-65
2022/08/19 11:50:43;;;;;;;12.80;10.32;;;26.40;82.40;;;;;;5094347;28;20039;-65
2022/08/19 11:53:09;;;;;;;9.15;8.27;;;26.40;82.80;;;;;;5094523;28;20052;-65
2022/08/19 11:55:38;;;;;;;10.57;9.48;;;26.50;84.80;;;;;;5093809;28;20043;-65
2022/08/19 11:58:06;;;;;;;10.80;9.65;;;26.50;83.80;;;;;;5093045;28;20490;-64
2022/08/19 12:00:33;;;;;;;11.32;9.68;;;26.50;84.10;;;;;;5094012;28;20055;-66
2022/08/19 12:02:59;;;;;;;13.30;10.60;;;26.30;84.00;;;;;;5094491;28;20540;-65
2022/08/19 12:05:25;;;;;;;11.45;10.25;;;26.10;84.60;;;;;;5086940;28;20138;-65
2022/08/19 12:07:50;;;;;;;9.48;8.18;;;26.20;87.10;;;;;;5084850;28;20439;-65
2022/08/19 12:10:16;;;;;;;12.85;9.73;;;26.20;88.10;;;;;;5084052;28;20039;-65
2022/08/19 12:12:42;;;;;;;9.52;8.50;;;26.20;85.40;;;;;;5083256;28;20083;-67
2022/08/19 12:15:10;;;;;;;8.80;7.90;;;26.20;85.90;;;;;;5083126;28;20040;-68
2022/08/19 12:17:36;;;;;;;9.60;8.60;;;26.20;85.10;;;;;;5073808;28;20402;-67
2022/08/19 12:20:02;;;;;;;9.05;7.93;;;26.30;83.10;;;;;;5073460;28;20040;-65
2022/08/19 12:22:28;;;;;;;9.82;8.00;;;26.40;84.00;;;;;;5073833;28;20040;-64
2022/08/19 12:24:54;;;;;;;9.45;8.52;;;26.50;84.20;;;;;;5073681;28;20049;-65
2022/08/19 12:27:21;;;;;;;7.80;7.10;;;26.60;83.40;;;;;;5073600;28;20063;-65
2022/08/19 12:29:46;;;;;;;11.55;9.48;;;26.70;83.90;;;;;;5073438;28;20063;-65
2022/08/19 12:32:12;;;;;;;9.85;8.85;;;26.60;82.00;;;;;;5073751;28;20522;-65
2022/08/19 12:34:38;;;;;;;9.85;8.73;;;26.40;82.40;;;;;;5055836;28;20079;-66
2022/08/19 12:37:05;;;;;;;13.95;9.60;;;26.30;84.00;;;;;;5073480;28;20044;-67
2022/08/19 12:39:39;;;;;;;11.10;9.50;;;26.20;84.20;;;;;;5071633;28;20391;-67
2022/08/19 12:42:05;;;;;;;9.85;8.85;;;26.10;85.90;;;;;;5073607;28;20048;-67
2022/08/19 12:44:32;;;;;;;11.73;10.50;;;26.00;87.00;;;;;;5072224;28;20033;-66
2022/08/19 12:46:58;;;;;;;9.82;8.82;;;26.00;86.60;;;;;;5073218;28;20063;-66
2022/08/19 12:49:24;;;;;;;13.73;10.10;;;25.90;86.30;;;;;;5071607;28;20041;-66
2022/08/19 12:51:52;;;;;;;12.82;10.65;;;25.90;85.70;;;;;;5073242;28;20036;-67
2022/08/19 12:54:17;;;;;;;12.20;10.18;;;25.90;86.40;;;;;;5072910;28;20516;-66
2022/08/19 12:56:44;;;;;;;13.02;11.73;;;25.90;86.20;;;;;;5073257;28;20032;-66
2022/08/19 12:59:11;;;;;;;11.88;10.68;;;25.80;86.80;;;;;;5072914;28;20048;-66
2022/08/19 13:01:37;;;;;;;11.20;9.90;;;25.80;88.10;;;;;;5071511;28;20048;-67
2022/08/19 13:04:03;;;;;;;11.50;9.98;;;25.80;88.10;;;;;;5073000;28;20119;-68